createdAt,value
2017-06-06T00:00:14.531Z,0
2017-06-06T00:01:15.816Z,0
2017-06-06T00:02:17.081Z,0
2017-06-06T00:03:18.305Z,0
2017-06-06T00:04:19.555Z,0
2017-06-06T00:05:20.808Z,0
2017-06-06T00:06:22.047Z,0
2017-06-06T00:07:23.356Z,0
2017-06-06T00:08:24.603Z,0
2017-06-06T00:09:25.868Z,0
2017-06-06T00:10:27.121Z,0
2017-06-06T00:11:28.372Z,0
2017-06-06T00:12:29.638Z,0
2017-06-06T00:13:30.978Z,0
2017-06-06T00:14:32.221Z,0
2017-06-06T00:15:33.483Z,0
2017-06-06T00:16:34.708Z,0
2017-06-06T00:17:35.950Z,0
2017-06-06T00:18:37.314Z,0
2017-06-06T00:19:38.544Z,0
2017-06-06T00:20:39.781Z,0
2017-06-06T00:21:41.030Z,0
2017-06-06T00:22:42.276Z,0
2017-06-06T00:23:43.527Z,0
2017-06-06T00:24:44.864Z,0
2017-06-06T00:25:46.134Z,0
2017-06-06T00:26:47.373Z,0
2017-06-06T00:27:48.611Z,0
2017-06-06T00:28:49.864Z,0
2017-06-06T00:29:51.089Z,0
2017-06-06T00:30:52.441Z,0
2017-06-06T00:31:53.707Z,0
2017-06-06T00:32:54.968Z,0
2017-06-06T00:33:56.361Z,0
2017-06-06T00:34:57.568Z,0
2017-06-06T00:35:58.813Z,0
2017-06-06T00:37:00.052Z,0
2017-06-06T00:38:01.291Z,0
2017-06-06T00:39:02.569Z,0
2017-06-06T00:40:03.809Z,0
2017-06-06T00:41:05.051Z,0
2017-06-06T00:42:06.373Z,0
2017-06-06T00:43:07.562Z,0
2017-06-06T00:44:08.882Z,0
2017-06-06T00:45:10.194Z,0
2017-06-06T00:46:11.412Z,0
2017-06-06T00:47:12.654Z,0
2017-06-06T00:48:13.901Z,0
2017-06-06T00:49:15.203Z,0
2017-06-06T00:50:16.482Z,0
2017-06-06T00:51:17.735Z,0
2017-06-06T00:52:18.977Z,0
2017-06-06T00:53:20.231Z,0
2017-06-06T00:54:21.506Z,0
2017-06-06T00:55:22.745Z,0
2017-06-06T00:56:23.981Z,0
2017-06-06T00:57:25.222Z,0
2017-06-06T00:58:26.460Z,0
2017-06-06T00:59:27.699Z,0
2017-06-06T01:00:28.948Z,0
2017-06-06T01:01:30.288Z,0
2017-06-06T01:02:31.506Z,0
2017-06-06T01:03:32.805Z,0
2017-06-06T01:04:34.085Z,0
2017-06-06T01:05:35.321Z,0
2017-06-06T01:06:36.579Z,0
2017-06-06T01:07:37.805Z,0
2017-06-06T01:08:39.048Z,0
2017-06-06T01:09:40.361Z,0
2017-06-06T01:10:41.578Z,0
2017-06-06T01:11:42.827Z,0
2017-06-06T01:12:44.090Z,0
2017-06-06T01:13:45.373Z,0
2017-06-06T01:14:46.718Z,0
2017-06-06T01:15:47.933Z,0
2017-06-06T01:16:49.174Z,0
2017-06-06T01:17:50.443Z,0
2017-06-06T01:18:51.703Z,0
2017-06-06T01:19:52.927Z,0
2017-06-06T01:20:54.268Z,0
2017-06-06T01:21:55.528Z,0
2017-06-06T01:22:56.810Z,0
2017-06-06T01:23:58.058Z,0
2017-06-06T01:24:59.302Z,0
2017-06-06T01:26:00.565Z,0
2017-06-06T01:27:01.808Z,0
2017-06-06T01:28:03.102Z,0
2017-06-06T01:29:04.359Z,0
2017-06-06T01:30:05.600Z,0
2017-06-06T01:31:06.840Z,0
2017-06-06T01:32:08.080Z,0
2017-06-06T01:33:09.332Z,0
2017-06-06T01:34:10.574Z,0
2017-06-06T01:35:11.818Z,0
2017-06-06T01:36:13.107Z,0
2017-06-06T01:37:14.330Z,0
2017-06-06T01:38:15.632Z,0
2017-06-06T01:39:16.873Z,0
2017-06-06T01:40:18.120Z,0
2017-06-06T01:41:19.391Z,0
2017-06-06T01:42:20.610Z,0
2017-06-06T01:43:21.860Z,0
2017-06-06T01:44:23.110Z,0
2017-06-06T01:45:24.483Z,0
2017-06-06T01:46:25.635Z,0
2017-06-06T01:47:26.883Z,0
2017-06-06T01:48:28.124Z,0
2017-06-06T01:49:29.357Z,0
2017-06-06T01:50:30.602Z,0
2017-06-06T01:51:31.837Z,0
2017-06-06T01:52:33.080Z,0
2017-06-06T01:53:34.349Z,0
2017-06-06T01:54:35.661Z,0
2017-06-06T01:55:36.906Z,0
2017-06-06T01:56:38.150Z,0
2017-06-06T01:57:39.397Z,0
2017-06-06T01:58:40.682Z,0
2017-06-06T01:59:41.936Z,0
2017-06-06T02:00:43.303Z,0
2017-06-06T02:01:44.541Z,0
2017-06-06T02:02:45.817Z,0
2017-06-06T02:03:47.037Z,0
2017-06-06T02:04:48.280Z,0
2017-06-06T02:05:49.533Z,0
2017-06-06T02:06:50.806Z,0
2017-06-06T02:07:52.085Z,0
2017-06-06T02:08:53.349Z,0
2017-06-06T02:09:54.593Z,0
2017-06-06T02:10:55.839Z,0
2017-06-06T02:11:57.097Z,0
2017-06-06T02:12:58.387Z,0
2017-06-06T02:13:59.625Z,0
2017-06-06T02:15:00.937Z,0
2017-06-06T02:16:02.175Z,0
2017-06-06T02:17:03.449Z,0
2017-06-06T02:18:04.690Z,0
2017-06-06T02:19:05.941Z,0
2017-06-06T02:20:07.178Z,0
2017-06-06T02:21:08.440Z,0
2017-06-06T02:22:09.686Z,0
2017-06-06T02:23:10.930Z,4
2017-06-06T02:24:12.280Z,4
2017-06-06T02:25:13.523Z,4
2017-06-06T02:26:14.804Z,0
2017-06-06T02:27:16.049Z,0
2017-06-06T02:28:17.294Z,4
2017-06-06T02:29:18.576Z,4
2017-06-06T02:30:19.804Z,4
2017-06-06T02:31:21.062Z,0
2017-06-06T02:32:22.308Z,4
2017-06-06T02:33:23.551Z,4
2017-06-06T02:34:24.808Z,4
2017-06-06T02:35:26.049Z,4
2017-06-06T02:36:27.286Z,4
2017-06-06T02:37:28.533Z,4
2017-06-06T02:38:29.791Z,4
2017-06-06T02:39:31.079Z,8
2017-06-06T02:40:32.324Z,8
2017-06-06T02:41:33.582Z,12
2017-06-06T02:42:34.818Z,8
2017-06-06T02:43:36.086Z,12
2017-06-06T02:44:37.321Z,12
2017-06-06T02:45:38.631Z,16
2017-06-06T02:46:39.975Z,16
2017-06-06T02:47:41.230Z,20
2017-06-06T02:48:42.455Z,20
2017-06-06T02:49:43.712Z,24
2017-06-06T02:50:45.060Z,28
2017-06-06T02:51:46.415Z,32
2017-06-06T02:52:47.663Z,40
2017-06-06T02:53:48.898Z,44
2017-06-06T02:54:50.139Z,52
2017-06-06T02:55:51.383Z,56
2017-06-06T02:56:52.633Z,64
2017-06-06T02:57:53.898Z,72
2017-06-06T02:58:55.131Z,84
2017-06-06T02:59:56.426Z,92
2017-06-06T03:00:57.664Z,108
2017-06-06T03:01:58.902Z,120
2017-06-06T03:03:00.249Z,136
2017-06-06T03:04:01.490Z,148
2017-06-06T03:05:02.731Z,160
2017-06-06T03:06:03.970Z,172
2017-06-06T03:07:05.205Z,180
2017-06-06T03:08:06.469Z,188
2017-06-06T03:09:07.701Z,196
2017-06-06T03:10:08.954Z,200
2017-06-06T03:11:10.194Z,204
2017-06-06T03:12:11.434Z,216
2017-06-06T03:13:12.676Z,236
2017-06-06T03:14:13.937Z,260
2017-06-06T03:15:15.162Z,296
2017-06-06T03:16:16.403Z,340
2017-06-06T03:17:17.775Z,380
2017-06-06T03:18:19.059Z,420
2017-06-06T03:19:20.297Z,440
2017-06-06T03:20:21.562Z,448
2017-06-06T03:21:22.902Z,460
2017-06-06T03:22:24.233Z,472
2017-06-06T03:23:25.480Z,476
2017-06-06T03:24:26.771Z,480
2017-06-06T03:25:28.008Z,480
2017-06-06T03:26:29.257Z,488
2017-06-06T03:27:30.497Z,516
2017-06-06T03:28:31.744Z,544
2017-06-06T03:29:33.008Z,572
2017-06-06T03:30:34.241Z,604
2017-06-06T03:31:35.484Z,636
2017-06-06T03:32:36.721Z,668
2017-06-06T03:33:37.960Z,696
2017-06-06T03:34:39.261Z,732
2017-06-06T03:35:40.528Z,768
2017-06-06T03:36:41.856Z,800
2017-06-06T03:37:43.076Z,832
2017-06-06T03:38:44.317Z,864
2017-06-06T03:39:45.570Z,892
2017-06-06T03:40:46.830Z,924
2017-06-06T03:41:48.094Z,948
2017-06-06T03:42:49.353Z,976
2017-06-06T03:43:50.579Z,1008
2017-06-06T03:44:51.820Z,1040
2017-06-06T03:45:53.057Z,1084
2017-06-06T03:46:54.298Z,1124
2017-06-06T03:47:55.635Z,1164
2017-06-06T03:48:56.914Z,1200
2017-06-06T03:49:58.155Z,1244
2017-06-06T03:50:59.392Z,1276
2017-06-06T03:52:00.642Z,1304
2017-06-06T03:53:01.881Z,1320
2017-06-06T03:54:03.125Z,1340
2017-06-06T03:55:04.457Z,1356
2017-06-06T03:56:05.711Z,1368
2017-06-06T03:57:06.964Z,1380
2017-06-06T03:58:08.183Z,1392
2017-06-06T03:59:09.441Z,1412
2017-06-06T04:00:10.670Z,1448
2017-06-06T04:01:11.935Z,1488
2017-06-06T04:02:13.249Z,1536
2017-06-06T04:03:14.488Z,1600
2017-06-06T04:04:15.728Z,1688
2017-06-06T04:05:16.983Z,1796
2017-06-06T04:06:18.272Z,1924
2017-06-06T04:07:19.548Z,2056
2017-06-06T04:08:20.809Z,2208
2017-06-06T04:09:22.054Z,2380
2017-06-06T04:10:23.306Z,2556
2017-06-06T04:11:24.534Z,2732
2017-06-06T04:12:25.775Z,2896
2017-06-06T04:13:27.025Z,3036
2017-06-06T04:14:28.388Z,3172
2017-06-06T04:15:29.643Z,3300
2017-06-06T04:16:30.877Z,3408
2017-06-06T04:17:32.141Z,3504
2017-06-06T04:18:33.480Z,3584
2017-06-06T04:19:34.733Z,3652
2017-06-06T04:20:35.982Z,3720
2017-06-06T04:21:37.223Z,3792
2017-06-06T04:22:38.477Z,3872
2017-06-06T04:23:39.739Z,3944
2017-06-06T04:24:40.960Z,4008
2017-06-06T04:25:42.213Z,4060
2017-06-06T04:26:43.450Z,4104
2017-06-06T04:27:44.707Z,4156
2017-06-06T04:28:45.969Z,4216
2017-06-06T04:29:47.198Z,4320
2017-06-06T04:30:48.478Z,4444
2017-06-06T04:31:49.715Z,4560
2017-06-06T04:32:51.074Z,4656
2017-06-06T04:33:52.369Z,4748
2017-06-06T04:34:53.610Z,4844
2017-06-06T04:35:54.849Z,4964
2017-06-06T04:36:56.090Z,5108
2017-06-06T04:37:57.337Z,5268
2017-06-06T04:38:58.630Z,5412
2017-06-06T04:39:59.909Z,5492
2017-06-06T04:41:01.117Z,5432
2017-06-06T04:42:02.378Z,5360
2017-06-06T04:43:03.629Z,5272
2017-06-06T04:44:04.858Z,5176
2017-06-06T04:45:06.246Z,4992
2017-06-06T04:46:07.500Z,4872
2017-06-06T04:47:08.728Z,4800
2017-06-06T04:48:09.965Z,4792
2017-06-06T04:49:11.204Z,4828
2017-06-06T04:50:12.466Z,4864
2017-06-06T04:51:13.716Z,5032
2017-06-06T04:52:15.062Z,5064
2017-06-06T04:53:16.304Z,5048
2017-06-06T04:54:17.551Z,5004
2017-06-06T04:55:18.795Z,4968
2017-06-06T04:56:20.056Z,5168
2017-06-06T04:57:21.278Z,5120
2017-06-06T04:58:22.528Z,5376
2017-06-06T04:59:23.771Z,5604
2017-06-06T05:00:25.037Z,5800
2017-06-06T05:01:26.287Z,5932
2017-06-06T05:02:27.534Z,6168
2017-06-06T05:03:28.784Z,6428
2017-06-06T05:04:30.094Z,6572
2017-06-06T05:05:31.341Z,6440
2017-06-06T05:06:32.594Z,6432
2017-06-06T05:07:33.899Z,6516
2017-06-06T05:08:35.187Z,6680
2017-06-06T05:09:36.415Z,7020
2017-06-06T05:10:37.646Z,6524
2017-06-06T05:11:38.926Z,6348
2017-06-06T05:12:40.200Z,6216
2017-06-06T05:13:41.423Z,6196
2017-06-06T05:14:42.670Z,6068
2017-06-06T05:15:43.926Z,6004
2017-06-06T05:16:45.243Z,5924
2017-06-06T05:17:46.487Z,5948
2017-06-06T05:18:47.736Z,6108
2017-06-06T05:19:49.009Z,6584
2017-06-06T05:20:50.213Z,7676
2017-06-06T05:21:51.484Z,7180
2017-06-06T05:22:52.767Z,7496
2017-06-06T05:23:54.036Z,8156
2017-06-06T05:24:55.259Z,8684
2017-06-06T05:25:56.522Z,9672
2017-06-06T05:26:57.768Z,9416
2017-06-06T05:27:59.008Z,9728
2017-06-06T05:29:00.279Z,10504
2017-06-06T05:30:01.517Z,11064
2017-06-06T05:31:02.945Z,11112
2017-06-06T05:32:04.194Z,12148
2017-06-06T05:33:05.433Z,12960
2017-06-06T05:34:06.798Z,14000
2017-06-06T05:35:08.235Z,13144
2017-06-06T05:36:09.378Z,13728
2017-06-06T05:37:10.659Z,15040
2017-06-06T05:38:11.901Z,19520
2017-06-06T05:39:13.181Z,17600
2017-06-06T05:40:14.442Z,13728
2017-06-06T05:41:15.689Z,12208
2017-06-06T05:42:16.963Z,11808
2017-06-06T05:43:18.213Z,12932
2017-06-06T05:44:19.468Z,14816
2017-06-06T05:45:20.713Z,17216
2017-06-06T05:46:21.980Z,17344
2017-06-06T05:47:23.210Z,22112
2017-06-06T05:48:24.542Z,21184
2017-06-06T05:49:25.819Z,20224
2017-06-06T05:50:27.068Z,23424
2017-06-06T05:51:28.306Z,25152
2017-06-06T05:52:29.566Z,26176
2017-06-06T05:53:31.043Z,29472
2017-06-06T05:54:32.414Z,26880
2017-06-06T05:55:33.656Z,17600
2017-06-06T05:56:34.902Z,20768
2017-06-06T05:57:36.141Z,20608
2017-06-06T05:58:37.509Z,22784
2017-06-06T05:59:38.757Z,18496
2017-06-06T06:00:40.018Z,16064
2017-06-06T06:01:41.266Z,17472
2017-06-06T06:02:42.527Z,17504
2017-06-06T06:03:43.795Z,24352
2017-06-06T06:04:45.045Z,24704
2017-06-06T06:05:46.298Z,25952
2017-06-06T06:06:47.541Z,22368
2017-06-06T06:07:48.791Z,19584
2017-06-06T06:08:50.047Z,18656
2017-06-06T06:09:51.338Z,18208
2017-06-06T06:10:52.630Z,19200
2017-06-06T06:11:53.883Z,18144
2017-06-06T06:12:55.145Z,21760
2017-06-06T06:13:56.396Z,17664
2017-06-06T06:14:57.650Z,16800
2017-06-06T06:15:58.902Z,15712
2017-06-06T06:17:00.158Z,16480
2017-06-06T06:18:01.412Z,18016
2017-06-06T06:19:02.663Z,18272
2017-06-06T06:20:03.924Z,17056
2017-06-06T06:21:05.163Z,16896
2017-06-06T06:22:06.408Z,16992
2017-06-06T06:23:07.658Z,14824
2017-06-06T06:24:08.939Z,14092
2017-06-06T06:25:10.320Z,14200
2017-06-06T06:26:11.545Z,14736
2017-06-06T06:27:12.927Z,14544
2017-06-06T06:28:14.192Z,15140
2017-06-06T06:29:15.441Z,16576
2017-06-06T06:30:16.704Z,38272
2017-06-06T06:31:18.091Z,40160
2017-06-06T06:32:19.338Z,38752
2017-06-06T06:33:20.587Z,40064
2017-06-06T06:34:21.836Z,35040
2017-06-06T06:35:23.086Z,51168
2017-06-06T06:36:24.356Z,45216
2017-06-06T06:37:25.606Z,48320
2017-06-06T06:38:26.923Z,46368
2017-06-06T06:39:28.171Z,44224
2017-06-06T06:40:29.422Z,42880
2017-06-06T06:41:30.740Z,41568
2017-06-06T06:42:32.011Z,45600
2017-06-06T06:43:33.249Z,41376
2017-06-06T06:44:34.518Z,42080
2017-06-06T06:45:35.761Z,48704
2017-06-06T06:46:37.014Z,32768
2017-06-06T06:47:38.263Z,23232
2017-06-06T06:48:39.521Z,24352
2017-06-06T06:49:40.870Z,26496
2017-06-06T06:50:42.150Z,17184
2017-06-06T06:51:43.399Z,22528
2017-06-06T06:52:44.647Z,19136
2017-06-06T06:53:45.926Z,10408
2017-06-06T06:54:47.233Z,9836
2017-06-06T06:55:48.502Z,9552
2017-06-06T06:56:49.781Z,9264
2017-06-06T06:57:51.012Z,8788
2017-06-06T06:58:52.263Z,8512
2017-06-06T06:59:53.540Z,8424
2017-06-06T07:00:54.871Z,8508
2017-06-06T07:01:56.122Z,8768
2017-06-06T07:02:57.405Z,9224
2017-06-06T07:03:58.682Z,9776
2017-06-06T07:04:59.939Z,10500
2017-06-06T07:06:01.174Z,11584
2017-06-06T07:07:02.450Z,12476
2017-06-06T07:08:03.696Z,13980
2017-06-06T07:09:04.963Z,12776
2017-06-06T07:10:06.242Z,12836
2017-06-06T07:11:07.470Z,13388
2017-06-06T07:12:08.828Z,16576
2017-06-06T07:13:10.090Z,18720
2017-06-06T07:14:11.366Z,21472
2017-06-06T07:15:12.659Z,20928
2017-06-06T07:16:13.917Z,19008
2017-06-06T07:17:15.163Z,18944
2017-06-06T07:18:16.441Z,25152
2017-06-06T07:19:17.677Z,19264
2017-06-06T07:20:18.950Z,22336
2017-06-06T07:21:20.217Z,19200
2017-06-06T07:22:21.478Z,14240
2017-06-06T07:23:22.759Z,12364
2017-06-06T07:24:23.987Z,11004
2017-06-06T07:25:25.286Z,9924
2017-06-06T07:26:26.638Z,9120
2017-06-06T07:27:27.883Z,8488
2017-06-06T07:28:29.134Z,7952
2017-06-06T07:29:30.402Z,7728
2017-06-06T07:30:31.641Z,7712
2017-06-06T07:31:32.927Z,7788
2017-06-06T07:32:34.184Z,7828
2017-06-06T07:33:35.430Z,7848
2017-06-06T07:34:36.686Z,7884
2017-06-06T07:35:37.938Z,8024
2017-06-06T07:36:39.183Z,8448
2017-06-06T07:37:40.428Z,9308
2017-06-06T07:38:41.693Z,10400
2017-06-06T07:39:42.926Z,10920
2017-06-06T07:40:44.200Z,10808
2017-06-06T07:41:45.440Z,10436
2017-06-06T07:42:46.673Z,10248
2017-06-06T07:43:47.922Z,10304
2017-06-06T07:44:49.199Z,10732
2017-06-06T07:45:50.524Z,11380
2017-06-06T07:46:51.781Z,12084
2017-06-06T07:47:53.032Z,12912
2017-06-06T07:48:54.287Z,14088
2017-06-06T07:49:55.660Z,15412
2017-06-06T07:50:56.911Z,15648
2017-06-06T07:51:58.168Z,14800
2017-06-06T07:52:59.442Z,14064
2017-06-06T07:54:00.662Z,13072
2017-06-06T07:55:01.928Z,12044
2017-06-06T07:56:03.191Z,10868
2017-06-06T07:57:04.448Z,10252
2017-06-06T07:58:05.688Z,10104
2017-06-06T07:59:06.945Z,10224
2017-06-06T08:00:08.184Z,10600
2017-06-06T08:01:09.479Z,11036
2017-06-06T08:02:10.842Z,10904
2017-06-06T08:03:12.112Z,10344
2017-06-06T08:04:13.358Z,9528
2017-06-06T08:05:14.701Z,9856
2017-06-06T08:06:15.964Z,11512
2017-06-06T08:07:17.210Z,13240
2017-06-06T08:08:18.487Z,14028
2017-06-06T08:09:19.721Z,14272
2017-06-06T08:10:21.076Z,14212
2017-06-06T08:11:22.373Z,13924
2017-06-06T08:12:23.607Z,14096
2017-06-06T08:13:24.922Z,14436
2017-06-06T08:14:26.163Z,14408
2017-06-06T08:15:27.410Z,14452
2017-06-06T08:16:28.658Z,14644
2017-06-06T08:17:29.905Z,15344
2017-06-06T08:18:31.151Z,15628
2017-06-06T08:19:32.382Z,15528
2017-06-06T08:20:33.635Z,15752
2017-06-06T08:21:34.887Z,15860
2017-06-06T08:22:36.184Z,13956
2017-06-06T08:23:37.404Z,13516
2017-06-06T08:24:38.622Z,14688
2017-06-06T08:25:39.889Z,16012
2017-06-06T08:26:41.146Z,14572
2017-06-06T08:27:42.450Z,17760
2017-06-06T08:28:43.695Z,20800
2017-06-06T08:29:44.952Z,21152
2017-06-06T08:30:46.201Z,16864
2017-06-06T08:31:47.450Z,17568
2017-06-06T08:32:48.726Z,16992
2017-06-06T08:33:49.959Z,15040
2017-06-06T08:34:51.268Z,13176
2017-06-06T08:35:52.512Z,10552
2017-06-06T08:36:53.770Z,8220
2017-06-06T08:37:55.012Z,6752
2017-06-06T08:38:56.255Z,6596
2017-06-06T08:39:57.506Z,6552
2017-06-06T08:40:58.764Z,6764
2017-06-06T08:42:00.018Z,7236
2017-06-06T08:43:01.292Z,6328
2017-06-06T08:44:02.535Z,4904
2017-06-06T08:45:03.791Z,4708
2017-06-06T08:46:05.024Z,5768
2017-06-06T08:47:06.282Z,6288
2017-06-06T08:48:07.548Z,5672
2017-06-06T08:49:08.847Z,5504
2017-06-06T08:50:10.065Z,4972
2017-06-06T08:51:11.315Z,4408
2017-06-06T08:52:12.567Z,5564
2017-06-06T08:53:13.824Z,5868
2017-06-06T08:54:15.162Z,5880
2017-06-06T08:55:16.415Z,6692
2017-06-06T08:56:17.650Z,6776
2017-06-06T08:57:18.887Z,6828
2017-06-06T08:58:20.126Z,6884
2017-06-06T08:59:21.492Z,6576
2017-06-06T09:00:22.774Z,6236
2017-06-06T09:01:24.016Z,6024
2017-06-06T09:02:25.330Z,6912
2017-06-06T09:03:26.550Z,6380
2017-06-06T09:04:27.803Z,6092
2017-06-06T09:05:29.125Z,6112
2017-06-06T09:06:30.361Z,6672
2017-06-06T09:07:31.699Z,8216
2017-06-06T09:08:32.905Z,9744
2017-06-06T09:09:34.148Z,9648
2017-06-06T09:10:35.385Z,9516
2017-06-06T09:11:36.645Z,9528
2017-06-06T09:12:37.889Z,8424
2017-06-06T09:13:39.171Z,7180
2017-06-06T09:14:40.402Z,6564
2017-06-06T09:15:41.641Z,5636
2017-06-06T09:16:42.912Z,5324
2017-06-06T09:17:44.185Z,5016
2017-06-06T09:18:45.493Z,4688
2017-06-06T09:19:46.729Z,4116
2017-06-06T09:20:47.970Z,3824
2017-06-06T09:21:49.209Z,3796
2017-06-06T09:22:50.455Z,4012
2017-06-06T09:23:51.701Z,4348
2017-06-06T09:24:53.052Z,4836
2017-06-06T09:25:54.329Z,5572
2017-06-06T09:26:55.561Z,6320
2017-06-06T09:27:56.829Z,6800
2017-06-06T09:28:58.086Z,7024
2017-06-06T09:29:59.333Z,6980
2017-06-06T09:31:00.588Z,6760
2017-06-06T09:32:01.834Z,6420
2017-06-06T09:33:03.090Z,5792
2017-06-06T09:34:04.339Z,5212
2017-06-06T09:35:05.592Z,5216
2017-06-06T09:36:06.961Z,6264
2017-06-06T09:37:08.093Z,8456
2017-06-06T09:38:09.349Z,10844
2017-06-06T09:39:10.588Z,12692
2017-06-06T09:40:11.838Z,14432
2017-06-06T09:41:13.090Z,15368
2017-06-06T09:42:14.326Z,15624
2017-06-06T09:43:15.616Z,14152
2017-06-06T09:44:16.892Z,11924
2017-06-06T09:45:18.209Z,10360
2017-06-06T09:46:19.461Z,9492
2017-06-06T09:47:20.747Z,9300
2017-06-06T09:48:21.990Z,9668
2017-06-06T09:49:23.238Z,11128
2017-06-06T09:50:24.808Z,10864
2017-06-06T09:51:25.938Z,10100
2017-06-06T09:52:27.188Z,11068
2017-06-06T09:53:28.437Z,11488
2017-06-06T09:54:29.670Z,11792
2017-06-06T09:55:30.949Z,12156
2017-06-06T09:56:32.222Z,11220
2017-06-06T09:57:33.462Z,10696
2017-06-06T09:58:34.710Z,10932
2017-06-06T09:59:35.967Z,12048
2017-06-06T10:00:37.221Z,11676
2017-06-06T10:01:38.469Z,11764
2017-06-06T10:02:39.749Z,11540
2017-06-06T10:03:41.051Z,11072
2017-06-06T10:04:42.311Z,11548
2017-06-06T10:05:43.581Z,11228
2017-06-06T10:06:44.792Z,10544
2017-06-06T10:07:46.032Z,9388
2017-06-06T10:08:47.280Z,9864
2017-06-06T10:09:48.542Z,9352
2017-06-06T10:10:49.791Z,9360
2017-06-06T10:11:51.190Z,10468
2017-06-06T10:12:52.452Z,10952
2017-06-06T10:13:53.762Z,10024
2017-06-06T10:14:55.002Z,8908
2017-06-06T10:15:56.343Z,6716
2017-06-06T10:16:57.602Z,4816
2017-06-06T10:17:58.861Z,4804
2017-06-06T10:19:00.119Z,5916
2017-06-06T10:20:01.359Z,5920
2017-06-06T10:21:02.707Z,8120
2017-06-06T10:22:03.986Z,9660
2017-06-06T10:23:05.230Z,8692
2017-06-06T10:24:06.493Z,6836
2017-06-06T10:25:07.745Z,8380
2017-06-06T10:26:08.999Z,12024
2017-06-06T10:27:10.251Z,12476
2017-06-06T10:28:11.492Z,14424
2017-06-06T10:29:12.751Z,14444
2017-06-06T10:30:13.982Z,13600
2017-06-06T10:31:15.234Z,12596
2017-06-06T10:32:16.487Z,12900
2017-06-06T10:33:17.697Z,12644
2017-06-06T10:34:18.968Z,9052
2017-06-06T10:35:20.208Z,9396
2017-06-06T10:36:21.472Z,10768
2017-06-06T10:37:22.773Z,12148
2017-06-06T10:38:23.982Z,10024
2017-06-06T10:39:25.209Z,10940
2017-06-06T10:40:26.518Z,12400
2017-06-06T10:41:27.763Z,13448
2017-06-06T10:42:29.028Z,16176
2017-06-06T10:43:30.315Z,17376
2017-06-06T10:44:31.564Z,14600
2017-06-06T10:45:32.811Z,14712
2017-06-06T10:46:34.059Z,14296
2017-06-06T10:47:35.354Z,18240
2017-06-06T10:48:36.622Z,24256
2017-06-06T10:49:37.851Z,15048
2017-06-06T10:50:39.084Z,12244
2017-06-06T10:51:40.326Z,10204
2017-06-06T10:52:41.595Z,6756
2017-06-06T10:53:42.904Z,9152
2017-06-06T10:54:44.170Z,9208
2017-06-06T10:55:45.417Z,9600
2017-06-06T10:56:46.648Z,6332
2017-06-06T10:57:47.928Z,6272
2017-06-06T10:58:49.184Z,6088
2017-06-06T10:59:50.447Z,6908
2017-06-06T11:00:51.701Z,7060
2017-06-06T11:01:52.960Z,7400
2017-06-06T11:02:54.215Z,8372
2017-06-06T11:03:55.450Z,9336
2017-06-06T11:04:56.704Z,8896
2017-06-06T11:05:57.976Z,9148
2017-06-06T11:06:59.326Z,9696
2017-06-06T11:08:00.644Z,10388
2017-06-06T11:09:01.863Z,11692
2017-06-06T11:10:03.101Z,13504
2017-06-06T11:11:04.361Z,17152
2017-06-06T11:12:05.618Z,21952
2017-06-06T11:13:06.992Z,24256
2017-06-06T11:14:08.212Z,23488
2017-06-06T11:15:09.462Z,21024
2017-06-06T11:16:10.707Z,17536
2017-06-06T11:17:12.033Z,14932
2017-06-06T11:18:13.353Z,14664
2017-06-06T11:19:14.603Z,15928
2017-06-06T11:20:15.846Z,17408
2017-06-06T11:21:17.089Z,18784
2017-06-06T11:22:18.330Z,17216
2017-06-06T11:23:19.583Z,15312
2017-06-06T11:24:20.847Z,15304
2017-06-06T11:25:22.235Z,16156
2017-06-06T11:26:23.441Z,18656
2017-06-06T11:27:24.693Z,16384
2017-06-06T11:28:25.950Z,17600
2017-06-06T11:29:27.192Z,17664
2017-06-06T11:30:28.579Z,16004
2017-06-06T11:31:29.721Z,14168
2017-06-06T11:32:30.966Z,13740
2017-06-06T11:33:32.208Z,12576
2017-06-06T11:34:33.449Z,10796
2017-06-06T11:35:34.695Z,10240
2017-06-06T11:36:35.943Z,7800
2017-06-06T11:37:37.314Z,6992
2017-06-06T11:38:38.599Z,6672
2017-06-06T11:39:39.842Z,5832
2017-06-06T11:40:41.117Z,4300
2017-06-06T11:41:42.352Z,5532
2017-06-06T11:42:43.680Z,7000
2017-06-06T11:43:44.930Z,8452
2017-06-06T11:44:46.185Z,9276
2017-06-06T11:45:47.418Z,10404
2017-06-06T11:46:48.669Z,11220
2017-06-06T11:47:49.912Z,10940
2017-06-06T11:48:51.223Z,10712
2017-06-06T11:49:52.599Z,11356
2017-06-06T11:50:53.840Z,12032
2017-06-06T11:51:55.116Z,11836
2017-06-06T11:52:56.353Z,12828
2017-06-06T11:53:57.620Z,16268
2017-06-06T11:54:58.845Z,16992
2017-06-06T11:56:00.095Z,14812
2017-06-06T11:57:01.341Z,12648
2017-06-06T11:58:02.577Z,12144
2017-06-06T11:59:03.815Z,14452
2017-06-06T12:00:05.072Z,15508
2017-06-06T12:01:06.333Z,13984
2017-06-06T12:02:07.684Z,13412
2017-06-06T12:03:08.984Z,14312
2017-06-06T12:04:10.201Z,15892
2017-06-06T12:05:11.440Z,15812
2017-06-06T12:06:12.690Z,14500
2017-06-06T12:07:13.963Z,12972
2017-06-06T12:08:15.313Z,11856
2017-06-06T12:09:16.561Z,11856
2017-06-06T12:10:17.800Z,13940
2017-06-06T12:11:19.051Z,17152
2017-06-06T12:12:20.308Z,19264
2017-06-06T12:13:21.558Z,18208
2017-06-06T12:14:22.856Z,16096
2017-06-06T12:15:24.109Z,14428
2017-06-06T12:16:25.384Z,14304
2017-06-06T12:17:26.665Z,16096
2017-06-06T12:18:27.899Z,17984
2017-06-06T12:19:29.138Z,18400
2017-06-06T12:20:30.385Z,18368
2017-06-06T12:21:31.626Z,19648
2017-06-06T12:22:32.895Z,20480
2017-06-06T12:23:34.165Z,20000
2017-06-06T12:24:35.386Z,20160
2017-06-06T12:25:36.662Z,20512
2017-06-06T12:26:37.913Z,20256
2017-06-06T12:27:39.231Z,20000
2017-06-06T12:28:40.492Z,20352
2017-06-06T12:29:41.744Z,19520
2017-06-06T12:30:43.004Z,18848
2017-06-06T12:31:44.250Z,19200
2017-06-06T12:32:45.502Z,19488
2017-06-06T12:33:46.780Z,19904
2017-06-06T12:34:48.027Z,19072
2017-06-06T12:35:49.271Z,16960
2017-06-06T12:36:50.535Z,13672
2017-06-06T12:37:51.761Z,12936
2017-06-06T12:38:53.013Z,12408
2017-06-06T12:39:54.268Z,12552
2017-06-06T12:40:55.549Z,12564
2017-06-06T12:41:56.893Z,13072
2017-06-06T12:42:58.182Z,14708
2017-06-06T12:43:59.399Z,13652
2017-06-06T12:45:00.659Z,12276
2017-06-06T12:46:01.962Z,10692
2017-06-06T12:47:03.328Z,10056
2017-06-06T12:48:04.612Z,10612
2017-06-06T12:49:05.869Z,9940
2017-06-06T12:50:07.112Z,9436
2017-06-06T12:51:08.362Z,12640
2017-06-06T12:52:09.663Z,12700
2017-06-06T12:53:10.904Z,15248
2017-06-06T12:54:12.144Z,14468
2017-06-06T12:55:13.399Z,13348
2017-06-06T12:56:14.649Z,16352
2017-06-06T12:57:15.913Z,12912
2017-06-06T12:58:17.262Z,11920
2017-06-06T12:59:18.515Z,14332
2017-06-06T13:00:19.781Z,11672
2017-06-06T13:01:21.029Z,12684
2017-06-06T13:02:22.274Z,12712
2017-06-06T13:03:23.533Z,11324
2017-06-06T13:04:24.867Z,9036
2017-06-06T13:05:26.171Z,8780
2017-06-06T13:06:27.442Z,8272
2017-06-06T13:07:28.665Z,7860
2017-06-06T13:08:29.936Z,8764
2017-06-06T13:09:31.231Z,7272
2017-06-06T13:10:32.588Z,6164
2017-06-06T13:11:33.814Z,6004
2017-06-06T13:12:35.054Z,6276
2017-06-06T13:13:36.308Z,5820
2017-06-06T13:14:37.568Z,5540
2017-06-06T13:15:38.829Z,7388
2017-06-06T13:16:40.080Z,9472
2017-06-06T13:17:41.345Z,9136
2017-06-06T13:18:42.589Z,9948
2017-06-06T13:19:43.826Z,10892
2017-06-06T13:20:45.078Z,10828
2017-06-06T13:21:46.313Z,8108
2017-06-06T13:22:47.557Z,8596
2017-06-06T13:23:48.920Z,8516
2017-06-06T13:24:50.162Z,13260
2017-06-06T13:25:51.438Z,12024
2017-06-06T13:26:52.669Z,9208
2017-06-06T13:27:53.926Z,10356
2017-06-06T13:28:55.190Z,7664
2017-06-06T13:29:56.512Z,8184
2017-06-06T13:30:57.873Z,8048
2017-06-06T13:31:59.123Z,6408
2017-06-06T13:33:00.363Z,5972
2017-06-06T13:34:01.604Z,6636
2017-06-06T13:35:02.883Z,8660
2017-06-06T13:36:04.101Z,8920
2017-06-06T13:37:05.409Z,6652
2017-06-06T13:38:06.779Z,6448
2017-06-06T13:39:08.015Z,7324
2017-06-06T13:40:09.262Z,7020
2017-06-06T13:41:10.516Z,9124
2017-06-06T13:42:11.826Z,7864
2017-06-06T13:43:13.089Z,5984